sensor_id;sensor_type;location;lat;lon;timestamp;temperature;humidity
25732;DHT22;13585;50.864;4.406;2022-08-30T00:02:12;27.60;45.10
25732;DHT22;13585;50.864;4.406;2022-08-30T00:04:38;27.70;45.30
25732;DHT22;13585;50.864;4.406;2022-08-30T00:07:04;27.70;45.30
25732;DHT22;13585;50.864;4.406;2022-08-30T00:09:50;27.60;45.30
25732;DHT22;13585;50.864;4.406;2022-08-30T00:12:41;27.60;45.50
25732;DHT22;13585;50.864;4.406;2022-08-30T00:15:11;27.70;45.50
25732;DHT22;13585;50.864;4.406;2022-08-30T00:17:41;27.70;45.40
25732;DHT22;13585;50.864;4.406;2022-08-30T00:20:10;27.70;45.40
25732;DHT22;13585;50.864;4.406;2022-08-30T00:22:46;27.70;45.50
25732;DHT22;13585;50.864;4.406;2022-08-30T00:29:07;27.60;45.50
25732;DHT22;13585;50.864;4.406;2022-08-30T00:31:33;27.80;46.20
25732;DHT22;13585;50.864;4.406;2022-08-30T00:33:59;27.70;45.60
25732;DHT22;13585;50.864;4.406;2022-08-30T00:36:25;27.70;45.60
25732;DHT22;13585;50.864;4.406;2022-08-30T00:38:50;27.60;45.60
25732;DHT22;13585;50.864;4.406;2022-08-30T00:41:16;27.60;45.60
25732;DHT22;13585;50.864;4.406;2022-08-30T00:43:42;27.70;45.70
25732;DHT22;13585;50.864;4.406;2022-08-30T00:46:08;27.70;45.70
25732;DHT22;13585;50.864;4.406;2022-08-30T00:48:41;27.70;45.70
25732;DHT22;13585;50.864;4.406;2022-08-30T00:51:09;27.60;45.70
25732;DHT22;13585;50.864;4.406;2022-08-30T00:53:39;27.70;45.80
25732;DHT22;13585;50.864;4.406;2022-08-30T00:56:07;27.60;45.70
25732;DHT22;13585;50.864;4.406;2022-08-30T00:58:36;27.70;45.80
25732;DHT22;13585;50.864;4.406;2022-08-30T01:01:05;27.60;45.80
25732;DHT22;13585;50.864;4.406;2022-08-30T01:03:33;27.70;45.90
25732;DHT22;13585;50.864;4.406;2022-08-30T01:06:00;27.60;45.80
25732;DHT22;13585;50.864;4.406;2022-08-30T01:08:27;27.70;45.90
25732;DHT22;13585;50.864;4.406;2022-08-30T01:10:54;27.70;45.90
25732;DHT22;13585;50.864;4.406;2022-08-30T01:13:23;27.70;45.90
25732;DHT22;13585;50.864;4.406;2022-08-30T01:15:50;27.60;45.90
25732;DHT22;13585;50.864;4.406;2022-08-30T01:18:17;27.60;45.90
25732;DHT22;13585;50.864;4.406;2022-08-30T01:21:02;27.70;46.00
25732;DHT22;13585;50.864;4.406;2022-08-30T01:23:32;27.60;46.00
25732;DHT22;13585;50.864;4.406;2022-08-30T01:25:59;27.70;46.00
25732;DHT22;13585;50.864;4.406;2022-08-30T01:28:28;27.70;46.00
25732;DHT22;13585;50.864;4.406;2022-08-30T01:30:54;27.60;46.00
25732;DHT22;13585;50.864;4.406;2022-08-30T01:33:21;27.70;46.10
25732;DHT22;13585;50.864;4.406;2022-08-30T01:38:24;27.60;46.10
25732;DHT22;13585;50.864;4.406;2022-08-30T01:40:56;27.60;46.10
25732;DHT22;13585;50.864;4.406;2022-08-30T01:43:24;27.60;46.10
25732;DHT22;13585;50.864;4.406;2022-08-30T01:45:50;27.60;46.10
25732;DHT22;13585;50.864;4.406;2022-08-30T01:48:16;27.70;46.20
25732;DHT22;13585;50.864;4.406;2022-08-30T01:50:41;27.60;46.10
25732;DHT22;13585;50.864;4.406;2022-08-30T01:53:08;27.60;46.80
25732;DHT22;13585;50.864;4.406;2022-08-30T01:55:33;27.60;46.20
25732;DHT22;13585;50.864;4.406;2022-08-30T01:57:59;27.70;46.20
25732;DHT22;13585;50.864;4.406;2022-08-30T02:00:25;27.60;46.20
25732;DHT22;13585;50.864;4.406;2022-08-30T02:02:51;27.60;46.20
25732;DHT22;13585;50.864;4.406;2022-08-30T02:05:17;27.60;46.20
25732;DHT22;13585;50.864;4.406;2022-08-30T02:07:43;27.60;46.20
25732;DHT22;13585;50.864;4.406;2022-08-30T02:10:09;27.60;46.20
25732;DHT22;13585;50.864;4.406;2022-08-30T02:12:35;27.60;46.30
25732;DHT22;13585;50.864;4.406;2022-08-30T02:15:01;27.60;46.30
25732;DHT22;13585;50.864;4.406;2022-08-30T02:17:26;27.60;46.30
25732;DHT22;13585;50.864;4.406;2022-08-30T02:19:52;27.60;46.30
25732;DHT22;13585;50.864;4.406;2022-08-30T02:22:18;27.60;46.90
25732;DHT22;13585;50.864;4.406;2022-08-30T02:24:45;27.60;46.30
25732;DHT22;13585;50.864;4.406;2022-08-30T02:27:11;27.60;46.30
25732;DHT22;13585;50.864;4.406;2022-08-30T02:29:36;27.60;46.40
25732;DHT22;13585;50.864;4.406;2022-08-30T02:32:03;27.60;46.30
25732;DHT22;13585;50.864;4.406;2022-08-30T02:34:29;27.60;46.40
25732;DHT22;13585;50.864;4.406;2022-08-30T02:37:06;27.60;46.30
25732;DHT22;13585;50.864;4.406;2022-08-30T02:39:33;27.60;46.40
25732;DHT22;13585;50.864;4.406;2022-08-30T02:41:59;27.60;46.30
25732;DHT22;13585;50.864;4.406;2022-08-30T02:44:25;27.60;46.40
25732;DHT22;13585;50.864;4.406;2022-08-30T02:46:50;27.60;46.40
25732;DHT22;13585;50.864;4.406;2022-08-30T02:49:16;27.60;46.40
25732;DHT22;13585;50.864;4.406;2022-08-30T02:51:42;27.60;46.40
25732;DHT22;13585;50.864;4.406;2022-08-30T02:54:08;27.60;46.40
25732;DHT22;13585;50.864;4.406;2022-08-30T02:56:34;27.60;46.40
25732;DHT22;13585;50.864;4.406;2022-08-30T02:59:00;27.60;46.40
25732;DHT22;13585;50.864;4.406;2022-08-30T03:01:26;27.60;46.50
25732;DHT22;13585;50.864;4.406;2022-08-30T03:03:52;27.60;46.40
25732;DHT22;13585;50.864;4.406;2022-08-30T03:06:18;27.60;46.50
25732;DHT22;13585;50.864;4.406;2022-08-30T03:08:44;27.60;46.40
25732;DHT22;13585;50.864;4.406;2022-08-30T03:11:10;27.60;46.50
25732;DHT22;13585;50.864;4.406;2022-08-30T03:13:38;27.60;46.40
25732;DHT22;13585;50.864;4.406;2022-08-30T03:16:04;27.60;46.50
25732;DHT22;13585;50.864;4.406;2022-08-30T03:18:30;27.60;46.50
25732;DHT22;13585;50.864;4.406;2022-08-30T03:20:55;27.60;46.50
25732;DHT22;13585;50.864;4.406;2022-08-30T03:23:22;27.60;46.50
25732;DHT22;13585;50.864;4.406;2022-08-30T03:25:48;27.60;46.50
25732;DHT22;13585;50.864;4.406;2022-08-30T03:28:14;27.60;46.50
25732;DHT22;13585;50.864;4.406;2022-08-30T03:30:52;27.60;46.50
25732;DHT22;13585;50.864;4.406;2022-08-30T03:33:19;27.50;46.50
25732;DHT22;13585;50.864;4.406;2022-08-30T03:35:44;27.60;46.50
25732;DHT22;13585;50.864;4.406;2022-08-30T03:38:10;27.60;46.50
25732;DHT22;13585;50.864;4.406;2022-08-30T03:40:36;27.60;46.50
25732;DHT22;13585;50.864;4.406;2022-08-30T03:43:02;27.60;46.50
25732;DHT22;13585;50.864;4.406;2022-08-30T03:45:28;27.60;46.50
25732;DHT22;13585;50.864;4.406;2022-08-30T03:47:53;27.60;46.50
25732;DHT22;13585;50.864;4.406;2022-08-30T03:50:20;27.60;46.50
25732;DHT22;13585;50.864;4.406;2022-08-30T03:52:46;27.60;46.50
25732;DHT22;13585;50.864;4.406;2022-08-30T03:55:11;27.50;46.50
25732;DHT22;13585;50.864;4.406;2022-08-30T03:57:37;27.60;46.50
25732;DHT22;13585;50.864;4.406;2022-08-30T04:00:05;27.60;46.50
25732;DHT22;13585;50.864;4.406;2022-08-30T04:02:31;27.60;46.50
25732;DHT22;13585;50.864;4.406;2022-08-30T04:04:57;27.60;46.60
25732;DHT22;13585;50.864;4.406;2022-08-30T04:07:23;27.60;46.60
25732;DHT22;13585;50.864;4.406;2022-08-30T04:09:49;27.60;46.60
25732;DHT22;13585;50.864;4.406;2022-08-30T04:12:14;27.60;46.60
25732;DHT22;13585;50.864;4.406;2022-08-30T04:14:40;27.50;46.50
25732;DHT22;13585;50.864;4.406;2022-08-30T04:17:06;27.60;46.60
25732;DHT22;13585;50.864;4.406;2022-08-30T04:19:32;27.60;46.60
25732;DHT22;13585;50.864;4.406;2022-08-30T04:21:57;27.50;46.50
25732;DHT22;13585;50.864;4.406;2022-08-30T04:24:23;27.60;46.60
25732;DHT22;13585;50.864;4.406;2022-08-30T04:26:49;27.60;46.60
25732;DHT22;13585;50.864;4.406;2022-08-30T04:29:16;27.60;46.60
25732;DHT22;13585;50.864;4.406;2022-08-30T04:31:43;27.50;46.50
25732;DHT22;13585;50.864;4.406;2022-08-30T04:34:10;27.50;46.50
25732;DHT22;13585;50.864;4.406;2022-08-30T04:36:36;27.50;46.60
25732;DHT22;13585;50.864;4.406;2022-08-30T04:39:02;27.50;46.90
25732;DHT22;13585;50.864;4.406;2022-08-30T04:41:28;27.50;46.60
25732;DHT22;13585;50.864;4.406;2022-08-30T04:43:54;27.50;46.60
25732;DHT22;13585;50.864;4.406;2022-08-30T04:46:20;27.60;46.70
25732;DHT22;13585;50.864;4.406;2022-08-30T04:48:45;27.50;46.60
25732;DHT22;13585;50.864;4.406;2022-08-30T04:51:13;27.60;46.70
25732;DHT22;13585;50.864;4.406;2022-08-30T04:53:43;27.50;46.60
25732;DHT22;13585;50.864;4.406;2022-08-30T04:56:11;27.50;46.60
25732;DHT22;13585;50.864;4.406;2022-08-30T04:58:41;27.50;46.60
25732;DHT22;13585;50.864;4.406;2022-08-30T05:01:22;27.50;46.60
25732;DHT22;13585;50.864;4.406;2022-08-30T05:03:49;27.50;46.70
25732;DHT22;13585;50.864;4.406;2022-08-30T05:06:16;27.50;47.20
25732;DHT22;13585;50.864;4.406;2022-08-30T05:08:43;27.50;46.60
25732;DHT22;13585;50.864;4.406;2022-08-30T05:11:09;27.50;46.60
25732;DHT22;13585;50.864;4.406;2022-08-30T05:13:36;27.50;46.60
25732;DHT22;13585;50.864;4.406;2022-08-30T05:16:04;27.50;46.60
25732;DHT22;13585;50.864;4.406;2022-08-30T05:18:31;27.50;46.70
25732;DHT22;13585;50.864;4.406;2022-08-30T05:21:08;27.50;46.70
25732;DHT22;13585;50.864;4.406;2022-08-30T05:23:36;27.40;46.70
25732;DHT22;13585;50.864;4.406;2022-08-30T05:26:05;27.50;46.60
25732;DHT22;13585;50.864;4.406;2022-08-30T05:28:32;27.50;46.70
25732;DHT22;13585;50.864;4.406;2022-08-30T05:30:58;27.50;47.30
25732;DHT22;13585;50.864;4.406;2022-08-30T05:33:23;27.50;46.70
25732;DHT22;13585;50.864;4.406;2022-08-30T05:35:49;27.50;46.80
25732;DHT22;13585;50.864;4.406;2022-08-30T05:38:15;27.50;46.90
25732;DHT22;13585;50.864;4.406;2022-08-30T05:40:43;27.50;46.90
25732;DHT22;13585;50.864;4.406;2022-08-30T05:43:09;27.50;47.10
25732;DHT22;13585;50.864;4.406;2022-08-30T05:45:36;27.50;47.20
25732;DHT22;13585;50.864;4.406;2022-08-30T05:48:03;27.50;47.30
25732;DHT22;13585;50.864;4.406;2022-08-30T05:50:29;27.50;47.40
25732;DHT22;13585;50.864;4.406;2022-08-30T05:52:55;27.50;47.50
25732;DHT22;13585;50.864;4.406;2022-08-30T05:55:21;27.50;47.60
25732;DHT22;13585;50.864;4.406;2022-08-30T05:57:47;27.50;47.50
25732;DHT22;13585;50.864;4.406;2022-08-30T06:00:22;27.50;47.60
25732;DHT22;13585;50.864;4.406;2022-08-30T06:02:52;27.50;47.60
25732;DHT22;13585;50.864;4.406;2022-08-30T06:05:18;27.50;47.60
25732;DHT22;13585;50.864;4.406;2022-08-30T06:07:45;27.50;47.60
25732;DHT22;13585;50.864;4.406;2022-08-30T06:10:11;27.50;47.70
25732;DHT22;13585;50.864;4.406;2022-08-30T06:12:37;27.50;47.80
25732;DHT22;13585;50.864;4.406;2022-08-30T06:15:03;27.50;47.80
25732;DHT22;13585;50.864;4.406;2022-08-30T06:17:29;27.40;47.70
25732;DHT22;13585;50.864;4.406;2022-08-30T06:19:54;27.50;47.80
25732;DHT22;13585;50.864;4.406;2022-08-30T06:22:20;27.50;47.90
25732;DHT22;13585;50.864;4.406;2022-08-30T06:24:46;27.50;47.80
25732;DHT22;13585;50.864;4.406;2022-08-30T06:27:12;27.50;47.80
25732;DHT22;13585;50.864;4.406;2022-08-30T06:29:38;27.60;47.90
25732;DHT22;13585;50.864;4.406;2022-08-30T06:32:04;27.50;47.80
25732;DHT22;13585;50.864;4.406;2022-08-30T06:34:30;27.50;47.80
25732;DHT22;13585;50.864;4.406;2022-08-30T06:36:55;27.50;48.40
25732;DHT22;13585;50.864;4.406;2022-08-30T06:39:21;27.50;47.80
25732;DHT22;13585;50.864;4.406;2022-08-30T06:41:47;27.50;47.80
25732;DHT22;13585;50.864;4.406;2022-08-30T06:44:13;27.50;47.80
25732;DHT22;13585;50.864;4.406;2022-08-30T06:46:38;27.50;47.80
25732;DHT22;13585;50.864;4.406;2022-08-30T06:49:05;27.50;47.70
25732;DHT22;13585;50.864;4.406;2022-08-30T06:51:34;27.50;47.80
25732;DHT22;13585;50.864;4.406;2022-08-30T06:54:01;27.50;47.70
25732;DHT22;13585;50.864;4.406;2022-08-30T06:56:27;27.50;47.70
25732;DHT22;13585;50.864;4.406;2022-08-30T06:58:53;27.50;47.70
25732;DHT22;13585;50.864;4.406;2022-08-30T07:01:22;27.50;47.70
25732;DHT22;13585;50.864;4.406;2022-08-30T07:03:49;27.50;47.70
25732;DHT22;13585;50.864;4.406;2022-08-30T07:06:15;27.50;47.70
25732;DHT22;13585;50.864;4.406;2022-08-30T07:08:41;27.50;47.70
25732;DHT22;13585;50.864;4.406;2022-08-30T07:11:07;27.50;47.60
25732;DHT22;13585;50.864;4.406;2022-08-30T07:13:34;27.50;47.60
25732;DHT22;13585;50.864;4.406;2022-08-30T07:16:00;27.50;47.60
25732;DHT22;13585;50.864;4.406;2022-08-30T07:18:26;27.50;47.70
25732;DHT22;13585;50.864;4.406;2022-08-30T07:21:13;27.40;47.70
25732;DHT22;13585;50.864;4.406;2022-08-30T07:23:40;27.40;47.80
25732;DHT22;13585;50.864;4.406;2022-08-30T07:26:10;27.40;47.90
25732;DHT22;13585;50.864;4.406;2022-08-30T07:28:37;27.40;48.80
25732;DHT22;13585;50.864;4.406;2022-08-30T07:31:04;27.30;48.30
25732;DHT22;13585;50.864;4.406;2022-08-30T07:33:30;27.30;48.50
25732;DHT22;13585;50.864;4.406;2022-08-30T07:35:56;27.30;48.60
25732;DHT22;13585;50.864;4.406;2022-08-30T07:38:27;27.20;48.60
25732;DHT22;13585;50.864;4.406;2022-08-30T07:40:53;27.20;48.70
25732;DHT22;13585;50.864;4.406;2022-08-30T07:43:19;27.20;48.70
25732;DHT22;13585;50.864;4.406;2022-08-30T07:45:45;27.20;48.80
25732;DHT22;13585;50.864;4.406;2022-08-30T07:48:11;27.30;48.90
25732;DHT22;13585;50.864;4.406;2022-08-30T07:50:42;27.20;48.80
25732;DHT22;13585;50.864;4.406;2022-08-30T07:53:09;27.20;48.80
25732;DHT22;13585;50.864;4.406;2022-08-30T07:55:35;27.20;48.70
25732;DHT22;13585;50.864;4.406;2022-08-30T07:58:00;27.30;48.80
25732;DHT22;13585;50.864;4.406;2022-08-30T08:00:26;27.30;48.80
25732;DHT22;13585;50.864;4.406;2022-08-30T08:03:11;27.20;48.80
25732;DHT22;13585;50.864;4.406;2022-08-30T08:05:41;27.20;48.70
25732;DHT22;13585;50.864;4.406;2022-08-30T08:08:08;27.30;48.80
25732;DHT22;13585;50.864;4.406;2022-08-30T08:10:37;27.30;48.60
25732;DHT22;13585;50.864;4.406;2022-08-30T08:13:04;27.30;48.60
25732;DHT22;13585;50.864;4.406;2022-08-30T08:15:30;27.30;48.60
25732;DHT22;13585;50.864;4.406;2022-08-30T08:17:56;27.30;48.60
25732;DHT22;13585;50.864;4.406;2022-08-30T08:20:22;27.40;48.60
25732;DHT22;13585;50.864;4.406;2022-08-30T08:22:48;27.40;48.60
25732;DHT22;13585;50.864;4.406;2022-08-30T08:29:25;27.50;48.70
25732;DHT22;13585;50.864;4.406;2022-08-30T08:36:02;27.60;48.60
25732;DHT22;13585;50.864;4.406;2022-08-30T08:39:07;27.60;48.70
25732;DHT22;13585;50.864;4.406;2022-08-30T08:49:21;27.70;48.80
25732;DHT22;13585;50.864;4.406;2022-08-30T09:23:56;27.70;49.00
25732;DHT22;13585;50.864;4.406;2022-08-30T09:26:30;27.70;49.10
25732;DHT22;13585;50.864;4.406;2022-08-30T09:29:15;27.70;49.10
25732;DHT22;13585;50.864;4.406;2022-08-30T09:31:50;27.70;49.20
25732;DHT22;13585;50.864;4.406;2022-08-30T09:34:24;27.70;49.10
25732;DHT22;13585;50.864;4.406;2022-08-30T09:36:56;27.70;49.20
25732;DHT22;13585;50.864;4.406;2022-08-30T09:39:26;27.80;49.10
25732;DHT22;13585;50.864;4.406;2022-08-30T09:41:53;27.70;49.10
25732;DHT22;13585;50.864;4.406;2022-08-30T09:44:23;27.80;49.10
25732;DHT22;13585;50.864;4.406;2022-08-30T09:46:59;27.70;49.10
25732;DHT22;13585;50.864;4.406;2022-08-30T09:49:42;27.70;49.10
25732;DHT22;13585;50.864;4.406;2022-08-30T09:52:23;27.70;49.20
25732;DHT22;13585;50.864;4.406;2022-08-30T09:55:20;27.80;49.20
25732;DHT22;13585;50.864;4.406;2022-08-30T10:16:53;27.80;49.30
25732;DHT22;13585;50.864;4.406;2022-08-30T10:34:38;27.90;49.40
25732;DHT22;13585;50.864;4.406;2022-08-30T10:37:13;27.80;49.40
25732;DHT22;13585;50.864;4.406;2022-08-30T10:39:47;27.90;49.50
25732;DHT22;13585;50.864;4.406;2022-08-30T10:42:27;27.80;49.40
25732;DHT22;13585;50.864;4.406;2022-08-30T10:45:16;27.90;49.50
25732;DHT22;13585;50.864;4.406;2022-08-30T10:48:32;27.80;49.50
25732;DHT22;13585;50.864;4.406;2022-08-30T10:51:01;27.90;49.50
25732;DHT22;13585;50.864;4.406;2022-08-30T10:53:33;27.90;49.50
25732;DHT22;13585;50.864;4.406;2022-08-30T10:56:13;27.90;49.50
25732;DHT22;13585;50.864;4.406;2022-08-30T10:58:49;27.90;49.50
25732;DHT22;13585;50.864;4.406;2022-08-30T11:25:06;28.00;49.80
25732;DHT22;13585;50.864;4.406;2022-08-30T11:27:44;28.00;49.90
25732;DHT22;13585;50.864;4.406;2022-08-30T11:33:01;28.00;49.90
25732;DHT22;13585;50.864;4.406;2022-08-30T11:35:54;28.00;49.90
25732;DHT22;13585;50.864;4.406;2022-08-30T11:41:05;28.10;49.90
25732;DHT22;13585;50.864;4.406;2022-08-30T11:46:20;28.10;50.00
25732;DHT22;13585;50.864;4.406;2022-08-30T11:54:43;28.10;50.00
25732;DHT22;13585;50.864;4.406;2022-08-30T12:02:55;28.10;50.10
25732;DHT22;13585;50.864;4.406;2022-08-30T12:08:05;28.10;50.10
25732;DHT22;13585;50.864;4.406;2022-08-30T12:14:41;28.10;49.90
25732;DHT22;13585;50.864;4.406;2022-08-30T12:20:54;28.10;49.90
25732;DHT22;13585;50.864;4.406;2022-08-30T12:26:42;28.20;49.90
25732;DHT22;13585;50.864;4.406;2022-08-30T12:29:17;28.20;49.90
25732;DHT22;13585;50.864;4.406;2022-08-30T12:31:47;28.20;50.00
25732;DHT22;13585;50.864;4.406;2022-08-30T12:37:10;28.10;50.00
25732;DHT22;13585;50.864;4.406;2022-08-30T12:39:44;28.30;49.80
25732;DHT22;13585;50.864;4.406;2022-08-30T12:42:27;28.30;49.70
25732;DHT22;13585;50.864;4.406;2022-08-30T12:45:03;28.20;49.90
25732;DHT22;13585;50.864;4.406;2022-08-30T12:47:41;28.20;49.90
25732;DHT22;13585;50.864;4.406;2022-08-30T12:50:11;28.10;49.90
25732;DHT22;13585;50.864;4.406;2022-08-30T12:52:43;28.20;49.90
25732;DHT22;13585;50.864;4.406;2022-08-30T12:55:20;28.20;50.00
25732;DHT22;13585;50.864;4.406;2022-08-30T12:58:10;28.20;49.90
25732;DHT22;13585;50.864;4.406;2022-08-30T13:00:39;28.20;50.00
25732;DHT22;13585;50.864;4.406;2022-08-30T13:03:28;28.20;49.90
25732;DHT22;13585;50.864;4.406;2022-08-30T13:05:55;28.20;50.00
25732;DHT22;13585;50.864;4.406;2022-08-30T13:11:08;28.20;49.90
25732;DHT22;13585;50.864;4.406;2022-08-30T13:13:44;28.20;49.90
25732;DHT22;13585;50.864;4.406;2022-08-30T13:16:34;28.20;49.90
25732;DHT22;13585;50.864;4.406;2022-08-30T13:25:18;28.30;49.90
25732;DHT22;13585;50.864;4.406;2022-08-30T13:31:54;28.30;49.80
25732;DHT22;13585;50.864;4.406;2022-08-30T13:34:21;28.30;49.70
25732;DHT22;13585;50.864;4.406;2022-08-30T13:36:54;28.30;49.80
25732;DHT22;13585;50.864;4.406;2022-08-30T13:39:20;28.30;49.90
25732;DHT22;13585;50.864;4.406;2022-08-30T13:45:51;28.10;49.60
25732;DHT22;13585;50.864;4.406;2022-08-30T13:48:45;28.30;49.50
25732;DHT22;13585;50.864;4.406;2022-08-30T13:51:12;28.30;49.50
25732;DHT22;13585;50.864;4.406;2022-08-30T13:53:40;28.40;49.50
25732;DHT22;13585;50.864;4.406;2022-08-30T13:56:09;28.30;49.70
25732;DHT22;13585;50.864;4.406;2022-08-30T13:58:42;28.30;49.60
25732;DHT22;13585;50.864;4.406;2022-08-30T14:01:08;28.30;49.70
25732;DHT22;13585;50.864;4.406;2022-08-30T14:03:34;28.30;49.60
25732;DHT22;13585;50.864;4.406;2022-08-30T14:06:00;28.30;49.70
25732;DHT22;13585;50.864;4.406;2022-08-30T14:08:28;28.30;49.60
25732;DHT22;13585;50.864;4.406;2022-08-30T14:10:55;28.30;49.60
25732;DHT22;13585;50.864;4.406;2022-08-30T14:13:35;28.30;49.60
25732;DHT22;13585;50.864;4.406;2022-08-30T14:16:13;28.20;49.50
25732;DHT22;13585;50.864;4.406;2022-08-30T14:18:39;28.40;49.50
25732;DHT22;13585;50.864;4.406;2022-08-30T14:21:34;28.40;49.30
25732;DHT22;13585;50.864;4.406;2022-08-30T14:24:03;28.30;49.50
25732;DHT22;13585;50.864;4.406;2022-08-30T14:26:37;28.30;49.40
25732;DHT22;13585;50.864;4.406;2022-08-30T14:29:10;28.30;49.50
25732;DHT22;13585;50.864;4.406;2022-08-30T14:31:39;28.30;50.10
25732;DHT22;13585;50.864;4.406;2022-08-30T14:34:07;28.30;49.50
25732;DHT22;13585;50.864;4.406;2022-08-30T14:36:35;28.30;49.50
25732;DHT22;13585;50.864;4.406;2022-08-30T14:39:04;28.30;49.50
25732;DHT22;13585;50.864;4.406;2022-08-30T14:41:32;28.30;49.60
25732;DHT22;13585;50.864;4.406;2022-08-30T14:43:58;28.30;49.60
25732;DHT22;13585;50.864;4.406;2022-08-30T14:46:24;28.30;49.60
25732;DHT22;13585;50.864;4.406;2022-08-30T14:48:53;28.30;49.50
25732;DHT22;13585;50.864;4.406;2022-08-30T14:51:21;28.30;49.60
25732;DHT22;13585;50.864;4.406;2022-08-30T14:54:04;28.30;49.50
25732;DHT22;13585;50.864;4.406;2022-08-30T14:56:41;28.40;49.60
25732;DHT22;13585;50.864;4.406;2022-08-30T14:59:13;28.40;49.60
25732;DHT22;13585;50.864;4.406;2022-08-30T15:01:43;28.30;49.60
25732;DHT22;13585;50.864;4.406;2022-08-30T15:04:10;28.30;49.90
25732;DHT22;13585;50.864;4.406;2022-08-30T15:06:38;28.40;49.70
25732;DHT22;13585;50.864;4.406;2022-08-30T15:09:07;28.30;49.60
25732;DHT22;13585;50.864;4.406;2022-08-30T15:11:34;28.30;49.60
25732;DHT22;13585;50.864;4.406;2022-08-30T15:14:15;28.30;49.50
25732;DHT22;13585;50.864;4.406;2022-08-30T15:16:41;28.30;49.70
25732;DHT22;13585;50.864;4.406;2022-08-30T15:19:10;28.40;49.60
25732;DHT22;13585;50.864;4.406;2022-08-30T15:24:40;28.40;49.50
25732;DHT22;13585;50.864;4.406;2022-08-30T15:27:08;28.50;49.40
25732;DHT22;13585;50.864;4.406;2022-08-30T15:29:35;28.50;49.40
25732;DHT22;13585;50.864;4.406;2022-08-30T15:32:02;28.40;49.30
25732;DHT22;13585;50.864;4.406;2022-08-30T15:34:29;28.40;49.40
25732;DHT22;13585;50.864;4.406;2022-08-30T15:36:55;28.40;49.50
25732;DHT22;13585;50.864;4.406;2022-08-30T15:39:22;28.20;49.40
25732;DHT22;13585;50.864;4.406;2022-08-30T15:44:53;28.30;49.50
25732;DHT22;13585;50.864;4.406;2022-08-30T15:47:21;28.30;49.40
25732;DHT22;13585;50.864;4.406;2022-08-30T15:49:58;28.30;49.30
25732;DHT22;13585;50.864;4.406;2022-08-30T15:52:27;28.30;49.40
25732;DHT22;13585;50.864;4.406;2022-08-30T15:54:54;28.30;49.30
25732;DHT22;13585;50.864;4.406;2022-08-30T15:57:20;28.30;49.40
25732;DHT22;13585;50.864;4.406;2022-08-30T15:59:46;28.30;49.40
25732;DHT22;13585;50.864;4.406;2022-08-30T16:02:12;28.30;49.40
25732;DHT22;13585;50.864;4.406;2022-08-30T16:04:39;28.40;49.50
25732;DHT22;13585;50.864;4.406;2022-08-30T16:07:05;28.30;49.60
25732;DHT22;13585;50.864;4.406;2022-08-30T16:09:32;28.40;49.60
25732;DHT22;13585;50.864;4.406;2022-08-30T16:11:58;28.30;49.50
25732;DHT22;13585;50.864;4.406;2022-08-30T16:14:27;28.40;49.60
25732;DHT22;13585;50.864;4.406;2022-08-30T16:16:53;28.40;49.70
25732;DHT22;13585;50.864;4.406;2022-08-30T16:19:19;28.30;49.60
25732;DHT22;13585;50.864;4.406;2022-08-30T16:21:45;28.30;49.60
25732;DHT22;13585;50.864;4.406;2022-08-30T16:24:12;28.30;49.60
25732;DHT22;13585;50.864;4.406;2022-08-30T16:26:39;28.30;49.60
25732;DHT22;13585;50.864;4.406;2022-08-30T16:29:06;28.30;49.60
25732;DHT22;13585;50.864;4.406;2022-08-30T16:31:33;28.30;49.60
25732;DHT22;13585;50.864;4.406;2022-08-30T16:34:00;28.30;49.60
25732;DHT22;13585;50.864;4.406;2022-08-30T16:36:26;28.30;49.60
25732;DHT22;13585;50.864;4.406;2022-08-30T16:38:53;28.30;49.70
25732;DHT22;13585;50.864;4.406;2022-08-30T16:41:20;28.30;49.60
25732;DHT22;13585;50.864;4.406;2022-08-30T16:43:47;28.30;49.60
25732;DHT22;13585;50.864;4.406;2022-08-30T16:46:15;28.30;49.60
25732;DHT22;13585;50.864;4.406;2022-08-30T16:48:43;28.30;49.60
25732;DHT22;13585;50.864;4.406;2022-08-30T16:51:12;28.30;49.60
25732;DHT22;13585;50.864;4.406;2022-08-30T16:53:38;28.30;50.00
25732;DHT22;13585;50.864;4.406;2022-08-30T16:56:06;28.30;50.60
25732;DHT22;13585;50.864;4.406;2022-08-30T16:58:33;28.30;51.00
25732;DHT22;13585;50.864;4.406;2022-08-30T17:00:59;28.30;51.40
25732;DHT22;13585;50.864;4.406;2022-08-30T17:03:25;28.30;51.50
25732;DHT22;13585;50.864;4.406;2022-08-30T17:05:50;28.30;51.40
25732;DHT22;13585;50.864;4.406;2022-08-30T17:08:16;28.30;51.20
25732;DHT22;13585;50.864;4.406;2022-08-30T17:10:45;28.30;51.00
25732;DHT22;13585;50.864;4.406;2022-08-30T17:13:14;28.30;50.90
25732;DHT22;13585;50.864;4.406;2022-08-30T17:15:41;28.30;50.80
25732;DHT22;13585;50.864;4.406;2022-08-30T17:18:11;28.30;50.60
25732;DHT22;13585;50.864;4.406;2022-08-30T17:20:37;28.30;50.60
25732;DHT22;13585;50.864;4.406;2022-08-30T17:23:03;28.30;50.50
25732;DHT22;13585;50.864;4.406;2022-08-30T17:25:35;28.30;50.30
25732;DHT22;13585;50.864;4.406;2022-08-30T17:28:09;28.30;50.50
25732;DHT22;13585;50.864;4.406;2022-08-30T17:30:36;28.30;49.60
25732;DHT22;13585;50.864;4.406;2022-08-30T17:33:02;28.30;49.10
25732;DHT22;13585;50.864;4.406;2022-08-30T17:35:31;28.20;48.60
25732;DHT22;13585;50.864;4.406;2022-08-30T17:38:05;28.30;48.30
25732;DHT22;13585;50.864;4.406;2022-08-30T17:43:34;28.20;48.00
25732;DHT22;13585;50.864;4.406;2022-08-30T17:46:41;28.30;47.80
25732;DHT22;13585;50.864;4.406;2022-08-30T17:49:40;28.20;47.80
25732;DHT22;13585;50.864;4.406;2022-08-30T17:52:09;28.30;48.00
25732;DHT22;13585;50.864;4.406;2022-08-30T17:54:35;28.20;47.90
25732;DHT22;13585;50.864;4.406;2022-08-30T17:57:20;28.20;47.90
25732;DHT22;13585;50.864;4.406;2022-08-30T17:59:48;28.20;48.00
25732;DHT22;13585;50.864;4.406;2022-08-30T18:02:15;28.20;47.70
25732;DHT22;13585;50.864;4.406;2022-08-30T18:04:41;28.20;47.40
25732;DHT22;13585;50.864;4.406;2022-08-30T18:07:08;28.20;47.20
25732;DHT22;13585;50.864;4.406;2022-08-30T18:09:34;28.20;47.00
25732;DHT22;13585;50.864;4.406;2022-08-30T18:12:00;28.20;46.90
25732;DHT22;13585;50.864;4.406;2022-08-30T18:14:26;28.20;46.60
25732;DHT22;13585;50.864;4.406;2022-08-30T18:16:52;28.20;46.60
25732;DHT22;13585;50.864;4.406;2022-08-30T18:19:17;28.20;46.40
25732;DHT22;13585;50.864;4.406;2022-08-30T18:21:43;28.20;46.30
25732;DHT22;13585;50.864;4.406;2022-08-30T18:24:09;28.20;46.20
25732;DHT22;13585;50.864;4.406;2022-08-30T18:26:35;28.20;46.10
25732;DHT22;13585;50.864;4.406;2022-08-30T18:29:03;28.20;46.00
25732;DHT22;13585;50.864;4.406;2022-08-30T18:31:30;28.20;45.90
25732;DHT22;13585;50.864;4.406;2022-08-30T18:33:55;28.10;45.70
25732;DHT22;13585;50.864;4.406;2022-08-30T18:36:25;28.20;45.60
25732;DHT22;13585;50.864;4.406;2022-08-30T18:38:51;28.10;45.40